sensor_id;sensor_type;location;lat;lon;timestamp;P1;durP1;ratioP1;P2;durP2;ratioP2
10633;SDS011;5365;51.640;8.106;2024-01-16T00:00:09;11.10;;;4.82;;
10633;SDS011;5365;51.640;8.106;2024-01-16T00:03:11;5.32;;;3.22;;
10633;SDS011;5365;51.640;8.106;2024-01-16T00:06:13;7.53;;;1.45;;
10633;SDS011;5365;51.640;8.106;2024-01-16T00:09:15;8.77;;;4.65;;
10633;SDS011;5365;51.640;8.106;2024-01-16T00:12:16;4.63;;;1.92;;
10633;SDS011;5365;51.640;8.106;2024-01-16T00:15:18;6.18;;;2.75;;
10633;SDS011;5365;51.640;8.106;2024-01-16T00:18:19;4.93;;;2.45;;
10633;SDS011;5365;51.640;8.106;2024-01-16T00:21:21;3.70;;;2.42;;
10633;SDS011;5365;51.640;8.106;2024-01-16T00:24:23;6.05;;;3.53;;
10633;SDS011;5365;51.640;8.106;2024-01-16T00:27:24;3.92;;;3.08;;
10633;SDS011;5365;51.640;8.106;2024-01-16T00:30:26;3.70;;;2.25;;
10633;SDS011;5365;51.640;8.106;2024-01-16T00:33:28;4.13;;;2.13;;
10633;SDS011;5365;51.640;8.106;2024-01-16T00:36:29;1.77;;;0.80;;
10633;SDS011;5365;51.640;8.106;2024-01-16T00:39:32;4.05;;;2.58;;
10633;SDS011;5365;51.640;8.106;2024-01-16T00:42:34;4.93;;;1.58;;
10633;SDS011;5365;51.640;8.106;2024-01-16T00:45:36;7.00;;;3.35;;
10633;SDS011;5365;51.640;8.106;2024-01-16T00:48:37;6.60;;;3.65;;
10633;SDS011;5365;51.640;8.106;2024-01-16T00:51:39;6.68;;;2.92;;
10633;SDS011;5365;51.640;8.106;2024-01-16T00:54:42;2.28;;;2.08;;
10633;SDS011;5365;51.640;8.106;2024-01-16T00:57:44;3.97;;;2.33;;
10633;SDS011;5365;51.640;8.106;2024-01-16T01:00:46;8.40;;;2.63;;
10633;SDS011;5365;51.640;8.106;2024-01-16T01:03:47;3.42;;;2.03;;
10633;SDS011;5365;51.640;8.106;2024-01-16T01:06:49;2.35;;;1.40;;
10633;SDS011;5365;51.640;8.106;2024-01-16T01:09:51;6.18;;;2.38;;
10633;SDS011;5365;51.640;8.106;2024-01-16T01:12:52;3.38;;;1.67;;
10633;SDS011;5365;51.640;8.106;2024-01-16T01:15:54;2.58;;;1.88;;
10633;SDS011;5365;51.640;8.106;2024-01-16T01:18:56;2.15;;;1.90;;
10633;SDS011;5365;51.640;8.106;2024-01-16T01:21:58;2.33;;;1.30;;
10633;SDS011;5365;51.640;8.106;2024-01-16T01:24:59;1.75;;;1.20;;
10633;SDS011;5365;51.640;8.106;2024-01-16T01:28:01;6.93;;;3.00;;
10633;SDS011;5365;51.640;8.106;2024-01-16T01:31:03;3.15;;;1.60;;
10633;SDS011;5365;51.640;8.106;2024-01-16T01:34:04;7.45;;;3.42;;
10633;SDS011;5365;51.640;8.106;2024-01-16T01:37:06;2.30;;;1.58;;
10633;SDS011;5365;51.640;8.106;2024-01-16T01:40:08;6.30;;;3.65;;
10633;SDS011;5365;51.640;8.106;2024-01-16T01:43:16;6.05;;;3.08;;
10633;SDS011;5365;51.640;8.106;2024-01-16T01:46:19;6.30;;;3.28;;
10633;SDS011;5365;51.640;8.106;2024-01-16T01:49:20;7.40;;;3.55;;
10633;SDS011;5365;51.640;8.106;2024-01-16T01:52:23;3.33;;;1.65;;
10633;SDS011;5365;51.640;8.106;2024-01-16T01:55:25;4.90;;;1.67;;
10633;SDS011;5365;51.640;8.106;2024-01-16T01:58:26;7.55;;;2.83;;
10633;SDS011;5365;51.640;8.106;2024-01-16T02:01:29;10.68;;;5.15;;
10633;SDS011;5365;51.640;8.106;2024-01-16T02:04:31;4.28;;;1.67;;
10633;SDS011;5365;51.640;8.106;2024-01-16T02:07:32;3.22;;;1.58;;
10633;SDS011;5365;51.640;8.106;2024-01-16T02:10:35;5.30;;;2.92;;
10633;SDS011;5365;51.640;8.106;2024-01-16T02:13:38;5.80;;;2.92;;
10633;SDS011;5365;51.640;8.106;2024-01-16T02:16:41;1.27;;;1.17;;
10633;SDS011;5365;51.640;8.106;2024-01-16T02:19:43;3.40;;;2.05;;
10633;SDS011;5365;51.640;8.106;2024-01-16T02:22:45;7.72;;;2.67;;
10633;SDS011;5365;51.640;8.106;2024-01-16T02:25:49;4.10;;;1.92;;
10633;SDS011;5365;51.640;8.106;2024-01-16T02:28:51;2.53;;;1.88;;
10633;SDS011;5365;51.640;8.106;2024-01-16T02:31:54;7.88;;;4.45;;
10633;SDS011;5365;51.640;8.106;2024-01-16T02:34:55;6.47;;;3.53;;
10633;SDS011;5365;51.640;8.106;2024-01-16T02:37:57;8.50;;;4.35;;
10633;SDS011;5365;51.640;8.106;2024-01-16T02:40:59;11.05;;;3.03;;
10633;SDS011;5365;51.640;8.106;2024-01-16T02:44:00;4.65;;;2.60;;
10633;SDS011;5365;51.640;8.106;2024-01-16T02:47:02;9.50;;;3.85;;
10633;SDS011;5365;51.640;8.106;2024-01-16T02:50:04;6.63;;;3.47;;
10633;SDS011;5365;51.640;8.106;2024-01-16T02:53:06;4.88;;;2.55;;
10633;SDS011;5365;51.640;8.106;2024-01-16T02:56:08;4.05;;;2.05;;
10633;SDS011;5365;51.640;8.106;2024-01-16T02:59:10;2.35;;;1.20;;
10633;SDS011;5365;51.640;8.106;2024-01-16T03:02:12;3.42;;;2.03;;
10633;SDS011;5365;51.640;8.106;2024-01-16T03:05:14;2.63;;;2.00;;
10633;SDS011;5365;51.640;8.106;2024-01-16T03:08:16;3.38;;;1.52;;
10633;SDS011;5365;51.640;8.106;2024-01-16T03:11:18;8.98;;;3.83;;
10633;SDS011;5365;51.640;8.106;2024-01-16T03:14:19;9.15;;;4.35;;
10633;SDS011;5365;51.640;8.106;2024-01-16T03:17:21;8.82;;;4.47;;
10633;SDS011;5365;51.640;8.106;2024-01-16T03:20:23;5.38;;;2.03;;
10633;SDS011;5365;51.640;8.106;2024-01-16T03:23:24;5.05;;;2.55;;
10633;SDS011;5365;51.640;8.106;2024-01-16T03:26:26;5.75;;;2.83;;
10633;SDS011;5365;51.640;8.106;2024-01-16T03:29:28;6.03;;;2.25;;
10633;SDS011;5365;51.640;8.106;2024-01-16T03:32:29;5.45;;;2.10;;
10633;SDS011;5365;51.640;8.106;2024-01-16T03:35:31;7.13;;;3.08;;
10633;SDS011;5365;51.640;8.106;2024-01-16T03:38:32;2.90;;;2.20;;
10633;SDS011;5365;51.640;8.106;2024-01-16T03:41:35;2.17;;;1.25;;
10633;SDS011;5365;51.640;8.106;2024-01-16T03:44:40;6.65;;;3.50;;
10633;SDS011;5365;51.640;8.106;2024-01-16T03:47:41;2.78;;;2.30;;
10633;SDS011;5365;51.640;8.106;2024-01-16T03:50:44;5.20;;;2.58;;
10633;SDS011;5365;51.640;8.106;2024-01-16T03:53:46;4.47;;;2.83;;
10633;SDS011;5365;51.640;8.106;2024-01-16T03:56:48;6.13;;;2.35;;
10633;SDS011;5365;51.640;8.106;2024-01-16T03:59:50;10.95;;;5.35;;
10633;SDS011;5365;51.640;8.106;2024-01-16T04:02:51;4.32;;;1.60;;
10633;SDS011;5365;51.640;8.106;2024-01-16T04:05:53;3.60;;;2.33;;
10633;SDS011;5365;51.640;8.106;2024-01-16T04:08:54;3.28;;;1.83;;
10633;SDS011;5365;51.640;8.106;2024-01-16T04:11:56;6.38;;;3.42;;
10633;SDS011;5365;51.640;8.106;2024-01-16T04:14:58;7.32;;;3.63;;
10633;SDS011;5365;51.640;8.106;2024-01-16T04:17:59;14.25;;;5.18;;
10633;SDS011;5365;51.640;8.106;2024-01-16T04:21:01;5.82;;;1.65;;
10633;SDS011;5365;51.640;8.106;2024-01-16T04:24:03;10.82;;;4.05;;
10633;SDS011;5365;51.640;8.106;2024-01-16T04:27:04;6.20;;;2.67;;
10633;SDS011;5365;51.640;8.106;2024-01-16T04:30:06;3.70;;;1.30;;
10633;SDS011;5365;51.640;8.106;2024-01-16T04:33:08;3.97;;;1.92;;
10633;SDS011;5365;51.640;8.106;2024-01-16T04:36:10;15.05;;;4.38;;
10633;SDS011;5365;51.640;8.106;2024-01-16T04:39:12;8.90;;;3.38;;
10633;SDS011;5365;51.640;8.106;2024-01-16T04:42:13;9.35;;;3.78;;
10633;SDS011;5365;51.640;8.106;2024-01-16T04:45:16;2.65;;;1.98;;
10633;SDS011;5365;51.640;8.106;2024-01-16T04:48:17;5.25;;;2.80;;
10633;SDS011;5365;51.640;8.106;2024-01-16T04:51:19;6.38;;;3.20;;
10633;SDS011;5365;51.640;8.106;2024-01-16T04:54:20;2.58;;;1.52;;
10633;SDS011;5365;51.640;8.106;2024-01-16T04:57:22;5.13;;;2.17;;
10633;SDS011;5365;51.640;8.106;2024-01-16T05:00:24;2.72;;;1.40;;
10633;SDS011;5365;51.640;8.106;2024-01-16T05:03:26;10.75;;;3.10;;
10633;SDS011;5365;51.640;8.106;2024-01-16T05:06:27;4.47;;;2.67;;
10633;SDS011;5365;51.640;8.106;2024-01-16T05:09:29;3.05;;;2.78;;
10633;SDS011;5365;51.640;8.106;2024-01-16T05:12:31;12.75;;;3.85;;
10633;SDS011;5365;51.640;8.106;2024-01-16T05:15:33;4.57;;;2.15;;
10633;SDS011;5365;51.640;8.106;2024-01-16T05:18:34;4.88;;;2.08;;
10633;SDS011;5365;51.640;8.106;2024-01-16T05:21:36;7.82;;;4.05;;
10633;SDS011;5365;51.640;8.106;2024-01-16T05:24:38;4.53;;;2.88;;
10633;SDS011;5365;51.640;8.106;2024-01-16T05:27:40;8.27;;;3.65;;
10633;SDS011;5365;51.640;8.106;2024-01-16T05:30:41;5.65;;;2.58;;
10633;SDS011;5365;51.640;8.106;2024-01-16T05:33:43;7.32;;;2.78;;
10633;SDS011;5365;51.640;8.106;2024-01-16T05:36:45;3.25;;;1.42;;
10633;SDS011;5365;51.640;8.106;2024-01-16T05:39:46;4.20;;;2.25;;
10633;SDS011;5365;51.640;8.106;2024-01-16T05:42:48;11.07;;;4.55;;
10633;SDS011;5365;51.640;8.106;2024-01-16T05:45:50;2.70;;;2.28;;
10633;SDS011;5365;51.640;8.106;2024-01-16T05:48:53;4.22;;;2.58;;
10633;SDS011;5365;51.640;8.106;2024-01-16T05:51:54;7.68;;;4.75;;
10633;SDS011;5365;51.640;8.106;2024-01-16T05:54:56;9.15;;;3.60;;
10633;SDS011;5365;51.640;8.106;2024-01-16T05:57:59;9.65;;;2.75;;
10633;SDS011;5365;51.640;8.106;2024-01-16T06:01:01;13.35;;;3.97;;
10633;SDS011;5365;51.640;8.106;2024-01-16T06:04:02;12.30;;;4.07;;
10633;SDS011;5365;51.640;8.106;2024-01-16T06:07:04;9.80;;;4.13;;
10633;SDS011;5365;51.640;8.106;2024-01-16T06:10:08;9.07;;;2.97;;
10633;SDS011;5365;51.640;8.106;2024-01-16T06:13:10;4.70;;;1.05;;
10633;SDS011;5365;51.640;8.106;2024-01-16T06:16:12;4.32;;;3.13;;
10633;SDS011;5365;51.640;8.106;2024-01-16T06:19:13;4.63;;;2.65;;
10633;SDS011;5365;51.640;8.106;2024-01-16T06:22:16;9.13;;;4.00;;
10633;SDS011;5365;51.640;8.106;2024-01-16T06:25:17;11.23;;;4.40;;
10633;SDS011;5365;51.640;8.106;2024-01-16T06:28:19;6.43;;;4.15;;
10633;SDS011;5365;51.640;8.106;2024-01-16T06:31:21;2.60;;;1.75;;
10633;SDS011;5365;51.640;8.106;2024-01-16T06:34:22;4.55;;;3.13;;
10633;SDS011;5365;51.640;8.106;2024-01-16T06:37:24;3.75;;;2.58;;
10633;SDS011;5365;51.640;8.106;2024-01-16T06:40:26;3.67;;;1.85;;
10633;SDS011;5365;51.640;8.106;2024-01-16T06:43:27;5.28;;;1.90;;
10633;SDS011;5365;51.640;8.106;2024-01-16T06:46:29;13.30;;;3.40;;
10633;SDS011;5365;51.640;8.106;2024-01-16T06:49:30;3.53;;;2.65;;
10633;SDS011;5365;51.640;8.106;2024-01-16T06:52:32;2.78;;;2.58;;
10633;SDS011;5365;51.640;8.106;2024-01-16T06:55:34;5.05;;;3.35;;
10633;SDS011;5365;51.640;8.106;2024-01-16T06:58:35;12.30;;;5.22;;
10633;SDS011;5365;51.640;8.106;2024-01-16T07:01:37;6.20;;;3.20;;
10633;SDS011;5365;51.640;8.106;2024-01-16T07:04:39;5.95;;;3.22;;
10633;SDS011;5365;51.640;8.106;2024-01-16T07:07:41;4.50;;;2.85;;
10633;SDS011;5365;51.640;8.106;2024-01-16T07:10:42;7.97;;;3.88;;
10633;SDS011;5365;51.640;8.106;2024-01-16T07:13:44;6.57;;;3.40;;
10633;SDS011;5365;51.640;8.106;2024-01-16T07:16:46;4.22;;;2.17;;
10633;SDS011;5365;51.640;8.106;2024-01-16T07:19:47;2.95;;;1.58;;
10633;SDS011;5365;51.640;8.106;2024-01-16T07:22:50;5.97;;;2.55;;
10633;SDS011;5365;51.640;8.106;2024-01-16T07:25:52;3.75;;;2.72;;
10633;SDS011;5365;51.640;8.106;2024-01-16T07:28:53;6.65;;;3.80;;
10633;SDS011;5365;51.640;8.106;2024-01-16T07:31:55;8.25;;;3.72;;
10633;SDS011;5365;51.640;8.106;2024-01-16T07:34:57;6.57;;;3.42;;
10633;SDS011;5365;51.640;8.106;2024-01-16T07:37:58;5.63;;;2.42;;
10633;SDS011;5365;51.640;8.106;2024-01-16T07:41:01;8.32;;;4.25;;
10633;SDS011;5365;51.640;8.106;2024-01-16T07:44:03;4.43;;;1.27;;
10633;SDS011;5365;51.640;8.106;2024-01-16T07:47:05;5.95;;;3.25;;
10633;SDS011;5365;51.640;8.106;2024-01-16T07:50:06;4.88;;;1.77;;
10633;SDS011;5365;51.640;8.106;2024-01-16T07:53:09;3.60;;;2.08;;
10633;SDS011;5365;51.640;8.106;2024-01-16T07:56:10;9.35;;;1.70;;
10633;SDS011;5365;51.640;8.106;2024-01-16T07:59:12;3.92;;;2.30;;
10633;SDS011;5365;51.640;8.106;2024-01-16T08:02:15;8.70;;;4.57;;
10633;SDS011;5365;51.640;8.106;2024-01-16T08:05:17;11.32;;;5.00;;
10633;SDS011;5365;51.640;8.106;2024-01-16T08:08:18;7.60;;;3.58;;
10633;SDS011;5365;51.640;8.106;2024-01-16T08:11:20;4.35;;;2.58;;
10633;SDS011;5365;51.640;8.106;2024-01-16T08:14:22;5.38;;;1.45;;
10633;SDS011;5365;51.640;8.106;2024-01-16T08:17:23;5.82;;;2.45;;
10633;SDS011;5365;51.640;8.106;2024-01-16T08:20:25;4.47;;;1.60;;
10633;SDS011;5365;51.640;8.106;2024-01-16T08:23:27;8.75;;;2.53;;
10633;SDS011;5365;51.640;8.106;2024-01-16T08:26:28;4.95;;;1.45;;
10633;SDS011;5365;51.640;8.106;2024-01-16T08:29:30;4.00;;;2.58;;
10633;SDS011;5365;51.640;8.106;2024-01-16T08:32:32;2.35;;;1.45;;
10633;SDS011;5365;51.640;8.106;2024-01-16T08:35:34;3.72;;;1.77;;
10633;SDS011;5365;51.640;8.106;2024-01-16T08:38:35;5.05;;;2.42;;
10633;SDS011;5365;51.640;8.106;2024-01-16T08:41:37;6.30;;;3.78;;
10633;SDS011;5365;51.640;8.106;2024-01-16T08:44:39;1.58;;;1.10;;
10633;SDS011;5365;51.640;8.106;2024-01-16T08:47:40;5.75;;;2.58;;
10633;SDS011;5365;51.640;8.106;2024-01-16T08:50:42;4.30;;;2.33;;
10633;SDS011;5365;51.640;8.106;2024-01-16T08:53:44;6.40;;;2.53;;
10633;SDS011;5365;51.640;8.106;2024-01-16T08:56:45;4.97;;;2.50;;
10633;SDS011;5365;51.640;8.106;2024-01-16T08:59:47;5.82;;;3.35;;
10633;SDS011;5365;51.640;8.106;2024-01-16T09:02:49;4.32;;;1.80;;
10633;SDS011;5365;51.640;8.106;2024-01-16T09:05:50;3.45;;;2.33;;
10633;SDS011;5365;51.640;8.106;2024-01-16T09:08:52;6.65;;;3.40;;
10633;SDS011;5365;51.640;8.106;2024-01-16T09:11:54;9.35;;;3.38;;
10633;SDS011;5365;51.640;8.106;2024-01-16T09:14:55;1.75;;;1.30;;
10633;SDS011;5365;51.640;8.106;2024-01-16T09:17:57;4.50;;;1.92;;
10633;SDS011;5365;51.640;8.106;2024-01-16T09:20:59;5.95;;;2.35;;
10633;SDS011;5365;51.640;8.106;2024-01-16T09:24:00;2.40;;;0.50;;
10633;SDS011;5365;51.640;8.106;2024-01-16T09:27:02;2.65;;;1.23;;
10633;SDS011;5365;51.640;8.106;2024-01-16T09:30:08;6.40;;;2.92;;
10633;SDS011;5365;51.640;8.106;2024-01-16T09:33:09;1.42;;;1.02;;
10633;SDS011;5365;51.640;8.106;2024-01-16T09:36:12;2.95;;;1.38;;
10633;SDS011;5365;51.640;8.106;2024-01-16T09:39:13;3.90;;;1.33;;
10633;SDS011;5365;51.640;8.106;2024-01-16T09:42:19;4.35;;;1.80;;
10633;SDS011;5365;51.640;8.106;2024-01-16T09:45:21;1.65;;;1.15;;
10633;SDS011;5365;51.640;8.106;2024-01-16T09:48:23;2.65;;;1.98;;
10633;SDS011;5365;51.640;8.106;2024-01-16T09:51:25;6.63;;;3.38;;
10633;SDS011;5365;51.640;8.106;2024-01-16T09:54:27;1.13;;;0.77;;
10633;SDS011;5365;51.640;8.106;2024-01-16T09:57:29;5.50;;;2.03;;
10633;SDS011;5365;51.640;8.106;2024-01-16T10:00:31;1.15;;;0.80;;
10633;SDS011;5365;51.640;8.106;2024-01-16T10:03:34;7.93;;;0.65;;
10633;SDS011;5365;51.640;8.106;2024-01-16T10:06:35;3.35;;;1.48;;
10633;SDS011;5365;51.640;8.106;2024-01-16T10:09:38;7.18;;;1.27;;
10633;SDS011;5365;51.640;8.106;2024-01-16T10:12:40;1.17;;;0.93;;
10633;SDS011;5365;51.640;8.106;2024-01-16T10:15:42;1.70;;;0.80;;
10633;SDS011;5365;51.640;8.106;2024-01-16T10:18:43;4.15;;;1.85;;
10633;SDS011;5365;51.640;8.106;2024-01-16T10:21:45;1.08;;;0.32;;
10633;SDS011;5365;51.640;8.106;2024-01-16T10:24:47;0.30;;;0.25;;
10633;SDS011;5365;51.640;8.106;2024-01-16T10:27:49;6.90;;;0.98;;
10633;SDS011;5365;51.640;8.106;2024-01-16T10:30:53;4.95;;;1.85;;
10633;SDS011;5365;51.640;8.106;2024-01-16T10:34:02;4.50;;;1.23;;
10633;SDS011;5365;51.640;8.106;2024-01-16T10:37:20;1.35;;;0.13;;
10633;SDS011;5365;51.640;8.106;2024-01-16T10:40:24;1.27;;;0.38;;
10633;SDS011;5365;51.640;8.106;2024-01-16T10:43:27;0.40;;;0.15;;
10633;SDS011;5365;51.640;8.106;2024-01-16T10:46:28;1.98;;;0.40;;
10633;SDS011;5365;51.640;8.106;2024-01-16T10:49:30;3.75;;;1.08;;
10633;SDS011;5365;51.640;8.106;2024-01-16T10:52:35;0.57;;;0.57;;
10633;SDS011;5365;51.640;8.106;2024-01-16T10:58:42;1.02;;;0.63;;
10633;SDS011;5365;51.640;8.106;2024-01-16T11:01:45;0.30;;;0.20;;
10633;SDS011;5365;51.640;8.106;2024-01-16T11:04:48;1.55;;;0.73;;
10633;SDS011;5365;51.640;8.106;2024-01-16T11:07:50;4.88;;;0.75;;
10633;SDS011;5365;51.640;8.106;2024-01-16T11:10:55;2.28;;;1.00;;
10633;SDS011;5365;51.640;8.106;2024-01-16T11:13:57;0.57;;;0.50;;
10633;SDS011;5365;51.640;8.106;2024-01-16T11:16:58;0.77;;;0.60;;
10633;SDS011;5365;51.640;8.106;2024-01-16T11:20:03;1.38;;;0.75;;
10633;SDS011;5365;51.640;8.106;2024-01-16T11:23:13;2.65;;;0.50;;
10633;SDS011;5365;51.640;8.106;2024-01-16T11:32:37;0.70;;;0.35;;
10633;SDS011;5365;51.640;8.106;2024-01-16T11:35:39;3.50;;;1.25;;
10633;SDS011;5365;51.640;8.106;2024-01-16T11:38:42;4.97;;;0.43;;
10633;SDS011;5365;51.640;8.106;2024-01-16T11:41:47;3.65;;;0.95;;
10633;SDS011;5365;51.640;8.106;2024-01-16T11:44:49;4.32;;;0.80;;
10633;SDS011;5365;51.640;8.106;2024-01-16T11:51:23;2.00;;;1.90;;
10633;SDS011;5365;51.640;8.106;2024-01-16T11:54:25;5.38;;;0.60;;
10633;SDS011;5365;51.640;8.106;2024-01-16T11:57:45;0.30;;;0.20;;
10633;SDS011;5365;51.640;8.106;2024-01-16T12:00:49;1.13;;;0.28;;
10633;SDS011;5365;51.640;8.106;2024-01-16T12:04:03;1.50;;;0.88;;
10633;SDS011;5365;51.640;8.106;2024-01-16T12:07:06;5.57;;;0.63;;
10633;SDS011;5365;51.640;8.106;2024-01-16T12:10:08;0.25;;;0.10;;
10633;SDS011;5365;51.640;8.106;2024-01-16T12:13:11;0.60;;;0.35;;
10633;SDS011;5365;51.640;8.106;2024-01-16T12:16:18;2.63;;;0.60;;
10633;SDS011;5365;51.640;8.106;2024-01-16T12:19:20;3.60;;;0.50;;
10633;SDS011;5365;51.640;8.106;2024-01-16T12:22:22;3.10;;;0.30;;
10633;SDS011;5365;51.640;8.106;2024-01-16T12:25:25;0.15;;;0.10;;
10633;SDS011;5365;51.640;8.106;2024-01-16T12:28:27;0.20;;;0.10;;
10633;SDS011;5365;51.640;8.106;2024-01-16T12:31:31;0.60;;;0.55;;
10633;SDS011;5365;51.640;8.106;2024-01-16T12:34:33;0.50;;;0.38;;
10633;SDS011;5365;51.640;8.106;2024-01-16T12:37:36;0.47;;;0.47;;
10633;SDS011;5365;51.640;8.106;2024-01-16T12:40:45;0.68;;;0.40;;
10633;SDS011;5365;51.640;8.106;2024-01-16T12:43:50;0.32;;;0.20;;
10633;SDS011;5365;51.640;8.106;2024-01-16T12:46:55;6.60;;;0.98;;
10633;SDS011;5365;51.640;8.106;2024-01-16T12:49:57;1.40;;;0.25;;
10633;SDS011;5365;51.640;8.106;2024-01-16T12:53:10;0.60;;;0.20;;
10633;SDS011;5365;51.640;8.106;2024-01-16T12:56:12;0.30;;;0.25;;
10633;SDS011;5365;51.640;8.106;2024-01-16T12:59:13;1.13;;;0.40;;
10633;SDS011;5365;51.640;8.106;2024-01-16T13:02:22;2.63;;;0.80;;
10633;SDS011;5365;51.640;8.106;2024-01-16T13:05:24;0.10;;;0.10;;
10633;SDS011;5365;51.640;8.106;2024-01-16T13:08:27;2.50;;;0.75;;
10633;SDS011;5365;51.640;8.106;2024-01-16T13:11:29;1.02;;;0.40;;
10633;SDS011;5365;51.640;8.106;2024-01-16T13:14:33;0.45;;;0.10;;
10633;SDS011;5365;51.640;8.106;2024-01-16T13:17:35;1.70;;;0.43;;
10633;SDS011;5365;51.640;8.106;2024-01-16T13:20:37;3.63;;;0.70;;
10633;SDS011;5365;51.640;8.106;2024-01-16T13:23:39;1.48;;;0.68;;
10633;SDS011;5365;51.640;8.106;2024-01-16T13:26:41;2.25;;;0.95;;
10633;SDS011;5365;51.640;8.106;2024-01-16T13:29:43;1.05;;;0.52;;
10633;SDS011;5365;51.640;8.106;2024-01-16T13:32:46;0.98;;;0.30;;
10633;SDS011;5365;51.640;8.106;2024-01-16T13:35:47;1.42;;;0.98;;
10633;SDS011;5365;51.640;8.106;2024-01-16T13:38:50;1.98;;;0.60;;
10633;SDS011;5365;51.640;8.106;2024-01-16T13:41:52;0.40;;;0.30;;
10633;SDS011;5365;51.640;8.106;2024-01-16T13:44:54;3.65;;;0.80;;
10633;SDS011;5365;51.640;8.106;2024-01-16T13:47:56;1.02;;;0.32;;
10633;SDS011;5365;51.640;8.106;2024-01-16T13:50:58;1.50;;;0.60;;
10633;SDS011;5365;51.640;8.106;2024-01-16T13:54:00;1.17;;;0.52;;
10633;SDS011;5365;51.640;8.106;2024-01-16T13:57:02;1.50;;;0.50;;
10633;SDS011;5365;51.640;8.106;2024-01-16T14:00:06;4.07;;;0.95;;
10633;SDS011;5365;51.640;8.106;2024-01-16T14:03:14;0.77;;;0.52;;
10633;SDS011;5365;51.640;8.106;2024-01-16T14:06:16;0.73;;;0.65;;
10633;SDS011;5365;51.640;8.106;2024-01-16T14:09:28;0.00;;;0.00;;
10633;SDS011;5365;51.640;8.106;2024-01-16T14:12:29;1.27;;;0.60;;
10633;SDS011;5365;51.640;8.106;2024-01-16T14:15:31;2.25;;;0.80;;
10633;SDS011;5365;51.640;8.106;2024-01-16T14:18:33;13.32;;;1.00;;
10633;SDS011;5365;51.640;8.106;2024-01-16T14:21:34;2.17;;;0.75;;
10633;SDS011;5365;51.640;8.106;2024-01-16T14:24:36;2.05;;;0.63;;
10633;SDS011;5365;51.640;8.106;2024-01-16T14:27:42;2.10;;;0.57;;
10633;SDS011;5365;51.640;8.106;2024-01-16T14:30:44;1.40;;;0.90;;
10633;SDS011;5365;51.640;8.106;2024-01-16T14:33:46;3.00;;;0.95;;
10633;SDS011;5365;51.640;8.106;2024-01-16T14:36:50;2.15;;;0.77;;
10633;SDS011;5365;51.640;8.106;2024-01-16T14:39:52;2.15;;;0.98;;
10633;SDS011;5365;51.640;8.106;2024-01-16T14:42:56;2.60;;;0.75;;
10633;SDS011;5365;51.640;8.106;2024-01-16T14:45:58;0.45;;;0.30;;
10633;SDS011;5365;51.640;8.106;2024-01-16T14:49:00;0.38;;;0.32;;
10633;SDS011;5365;51.640;8.106;2024-01-16T14:52:01;0.45;;;0.45;;
10633;SDS011;5365;51.640;8.106;2024-01-16T14:55:03;3.60;;;0.60;;
10633;SDS011;5365;51.640;8.106;2024-01-16T14:58:06;5.30;;;0.73;;
10633;SDS011;5365;51.640;8.106;2024-01-16T15:01:09;0.35;;;0.28;;
10633;SDS011;5365;51.640;8.106;2024-01-16T15:04:12;2.80;;;1.08;;
10633;SDS011;5365;51.640;8.106;2024-01-16T15:07:14;1.08;;;0.32;;
10633;SDS011;5365;51.640;8.106;2024-01-16T15:10:16;0.32;;;0.28;;
10633;SDS011;5365;51.640;8.106;2024-01-16T15:13:18;1.85;;;0.82;;
10633;SDS011;5365;51.640;8.106;2024-01-16T15:16:19;0.45;;;0.28;;
10633;SDS011;5365;51.640;8.106;2024-01-16T15:19:21;2.50;;;1.40;;
10633;SDS011;5365;51.640;8.106;2024-01-16T15:22:23;0.82;;;0.38;;
10633;SDS011;5365;51.640;8.106;2024-01-16T15:25:24;2.08;;;1.23;;
10633;SDS011;5365;51.640;8.106;2024-01-16T15:28:27;1.95;;;1.00;;
10633;SDS011;5365;51.640;8.106;2024-01-16T15:31:28;1.48;;;0.90;;
10633;SDS011;5365;51.640;8.106;2024-01-16T15:34:30;1.75;;;0.95;;
10633;SDS011;5365;51.640;8.106;2024-01-16T15:37:32;1.52;;;0.38;;
10633;SDS011;5365;51.640;8.106;2024-01-16T15:40:33;1.35;;;0.50;;
10633;SDS011;5365;51.640;8.106;2024-01-16T15:43:35;3.00;;;0.98;;
10633;SDS011;5365;51.640;8.106;2024-01-16T15:49:58;1.25;;;0.85;;
10633;SDS011;5365;51.640;8.106;2024-01-16T15:53:00;1.85;;;0.52;;
10633;SDS011;5365;51.640;8.106;2024-01-16T15:56:02;2.78;;;1.20;;
10633;SDS011;5365;51.640;8.106;2024-01-16T15:59:06;1.23;;;0.68;;
10633;SDS011;5365;51.640;8.106;2024-01-16T16:02:08;1.27;;;0.73;;
10633;SDS011;5365;51.640;8.106;2024-01-16T16:05:10;0.65;;;0.55;;
10633;SDS011;5365;51.640;8.106;2024-01-16T16:08:11;1.10;;;0.77;;
10633;SDS011;5365;51.640;8.106;2024-01-16T16:11:13;1.00;;;0.98;;
10633;SDS011;5365;51.640;8.106;2024-01-16T16:14:16;0.75;;;0.38;;
10633;SDS011;5365;51.640;8.106;2024-01-16T16:17:18;0.30;;;0.25;;
10633;SDS011;5365;51.640;8.106;2024-01-16T16:20:20;1.67;;;1.17;;
10633;SDS011;5365;51.640;8.106;2024-01-16T16:23:25;1.08;;;0.63;;
10633;SDS011;5365;51.640;8.106;2024-01-16T16:26:34;6.32;;;1.08;;
10633;SDS011;5365;51.640;8.106;2024-01-16T16:29:37;0.80;;;0.40;;
10633;SDS011;5365;51.640;8.106;2024-01-16T16:32:39;2.20;;;0.68;;
10633;SDS011;5365;51.640;8.106;2024-01-16T16:35:41;0.98;;;0.80;;
10633;SDS011;5365;51.640;8.106;2024-01-16T16:38:45;3.60;;;0.57;;
10633;SDS011;5365;51.640;8.106;2024-01-16T16:41:47;0.52;;;0.43;;
10633;SDS011;5365;51.640;8.106;2024-01-16T16:44:50;0.30;;;0.30;;
10633;SDS011;5365;51.640;8.106;2024-01-16T16:47:51;3.08;;;1.83;;
10633;SDS011;5365;51.640;8.106;2024-01-16T16:50:53;2.40;;;0.90;;
10633;SDS011;5365;51.640;8.106;2024-01-16T16:53:55;2.85;;;1.10;;
10633;SDS011;5365;51.640;8.106;2024-01-16T16:56:56;0.30;;;0.30;;
10633;SDS011;5365;51.640;8.106;2024-01-16T16:59:58;1.25;;;0.38;;
10633;SDS011;5365;51.640;8.106;2024-01-16T17:03:00;0.50;;;0.20;;
10633;SDS011;5365;51.640;8.106;2024-01-16T17:06:08;0.77;;;0.40;;
10633;SDS011;5365;51.640;8.106;2024-01-16T17:09:10;0.63;;;0.63;;
10633;SDS011;5365;51.640;8.106;2024-01-16T17:12:13;2.03;;;0.65;;
10633;SDS011;5365;51.640;8.106;2024-01-16T17:15:14;6.35;;;1.30;;
10633;SDS011;5365;51.640;8.106;2024-01-16T17:18:16;0.08;;;0.05;;
10633;SDS011;5365;51.640;8.106;2024-01-16T17:21:25;0.70;;;0.43;;
10633;SDS011;5365;51.640;8.106;2024-01-16T17:24:27;1.38;;;0.95;;
10633;SDS011;5365;51.640;8.106;2024-01-16T17:27:28;1.20;;;1.02;;
10633;SDS011;5365;51.640;8.106;2024-01-16T17:30:30;1.38;;;1.10;;
10633;SDS011;5365;51.640;8.106;2024-01-16T17:33:32;0.43;;;0.43;;
10633;SDS011;5365;51.640;8.106;2024-01-16T17:36:37;0.28;;;0.20;;
10633;SDS011;5365;51.640;8.106;2024-01-16T17:39:40;0.55;;;0.43;;
10633;SDS011;5365;51.640;8.106;2024-01-16T17:42:42;0.82;;;0.60;;
10633;SDS011;5365;51.640;8.106;2024-01-16T17:45:44;0.88;;;0.85;;
10633;SDS011;5365;51.640;8.106;2024-01-16T17:48:46;0.95;;;0.55;;
10633;SDS011;5365;51.640;8.106;2024-01-16T17:51:48;4.50;;;1.95;;
10633;SDS011;5365;51.640;8.106;2024-01-16T17:54:51;1.20;;;1.15;;
10633;SDS011;5365;51.640;8.106;2024-01-16T17:57:53;0.38;;;0.30;;
10633;SDS011;5365;51.640;8.106;2024-01-16T18:00:55;0.30;;;0.00;;
10633;SDS011;5365;51.640;8.106;2024-01-16T18:03:56;0.15;;;0.15;;
10633;SDS011;5365;51.640;8.106;2024-01-16T18:06:58;0.80;;;0.77;;
10633;SDS011;5365;51.640;8.106;2024-01-16T18:10:00;1.17;;;1.10;;
10633;SDS011;5365;51.640;8.106;2024-01-16T18:13:03;1.73;;;0.90;;
10633;SDS011;5365;51.640;8.106;2024-01-16T18:16:07;1.80;;;1.05;;
10633;SDS011;5365;51.640;8.106;2024-01-16T18:19:09;1.08;;;0.98;;
10633;SDS011;5365;51.640;8.106;2024-01-16T18:22:10;0.20;;;0.20;;
10633;SDS011;5365;51.640;8.106;2024-01-16T18:25:12;0.93;;;0.60;;
10633;SDS011;5365;51.640;8.106;2024-01-16T18:28:15;0.52;;;0.52;;
10633;SDS011;5365;51.640;8.106;2024-01-16T18:31:17;0.17;;;0.17;;
10633;SDS011;5365;51.640;8.106;2024-01-16T18:34:20;2.17;;;1.10;;
10633;SDS011;5365;51.640;8.106;2024-01-16T18:37:22;0.45;;;0.45;;
10633;SDS011;5365;51.640;8.106;2024-01-16T18:40:25;1.35;;;0.68;;
10633;SDS011;5365;51.640;8.106;2024-01-16T18:43:28;2.10;;;0.90;;
10633;SDS011;5365;51.640;8.106;2024-01-16T18:46:32;1.63;;;0.35;;
10633;SDS011;5365;51.640;8.106;2024-01-16T18:49:36;0.22;;;0.13;;